createdAt,value
2022-12-05T00:01:03.063Z,1.38
2022-12-05T00:03:29.706Z,1.38
2022-12-05T00:05:56.396Z,1.55
2022-12-05T00:08:23.061Z,1.35
2022-12-05T00:10:49.702Z,1.30
2022-12-05T00:13:16.396Z,1.27
2022-12-05T00:15:43.055Z,1.33
2022-12-05T00:18:09.682Z,1.23
2022-12-05T00:20:36.367Z,1.50
2022-12-05T00:23:03.037Z,1.63
2022-12-05T00:25:29.690Z,1.30
2022-12-05T00:27:56.388Z,1.50
2022-12-05T00:30:23.015Z,2.00
2022-12-05T00:32:49.703Z,1.50
2022-12-05T00:35:16.591Z,1.67
2022-12-05T00:37:43.227Z,1.50
2022-12-05T00:40:10.211Z,1.25
2022-12-05T00:42:36.900Z,1.58
2022-12-05T00:45:04.228Z,1.45
2022-12-05T00:47:30.927Z,1.42
2022-12-05T00:49:57.747Z,1.25
2022-12-05T00:52:24.489Z,1.42
2022-12-05T00:54:51.125Z,1.17
2022-12-05T00:57:17.747Z,1.27
2022-12-05T00:59:44.720Z,1.20
2022-12-05T01:02:11.450Z,1.17
2022-12-05T01:04:38.084Z,1.42
2022-12-05T01:07:04.847Z,1.38
2022-12-05T01:09:31.495Z,1.50
2022-12-05T01:11:58.206Z,1.23
2022-12-05T01:14:26.203Z,1.30
2022-12-05T01:16:54.881Z,1.60
2022-12-05T01:19:26.257Z,1.40
2022-12-05T01:21:53.594Z,1.83
2022-12-05T01:24:21.523Z,1.55
2022-12-05T01:26:48.290Z,1.40
2022-12-05T01:29:16.511Z,1.27
2022-12-05T01:31:43.324Z,1.27
2022-12-05T01:34:14.894Z,1.40
2022-12-05T01:36:41.843Z,1.58
2022-12-05T01:39:10.001Z,1.27
2022-12-05T01:41:40.316Z,1.83
2022-12-05T01:44:08.110Z,0.90
2022-12-05T01:46:40.624Z,1.30
2022-12-05T01:49:12.242Z,0.98
2022-12-05T01:51:42.929Z,1.20
2022-12-05T01:54:10.491Z,0.90
2022-12-05T01:56:37.265Z,1.52
2022-12-05T01:59:05.615Z,1.30
2022-12-05T02:01:32.809Z,1.25
2022-12-05T02:03:59.765Z,1.33
2022-12-05T02:06:27.823Z,1.33
2022-12-05T02:08:55.061Z,1.10
2022-12-05T02:11:23.757Z,1.00
2022-12-05T02:14:02.563Z,2.13
2022-12-05T02:16:49.305Z,2.13
2022-12-05T02:19:44.073Z,1.08
2022-12-05T02:22:29.007Z,1.23
2022-12-05T02:25:19.367Z,1.65
2022-12-05T02:28:09.658Z,1.55
2022-12-05T02:30:42.025Z,1.48
2022-12-05T02:33:17.640Z,1.50
2022-12-05T02:38:45.327Z,1.10
2022-12-05T02:41:31.091Z,1.20
2022-12-05T02:44:04.981Z,1.17
2022-12-05T02:46:33.532Z,1.60
2022-12-05T02:49:03.775Z,1.60
2022-12-05T02:51:33.688Z,1.58
2022-12-05T02:54:03.024Z,1.67
2022-12-05T02:58:56.603Z,1.30
2022-12-05T03:01:25.529Z,1.52
2022-12-05T03:03:52.258Z,1.30
2022-12-05T03:06:24.327Z,1.70
2022-12-05T03:08:58.716Z,1.40
2022-12-05T03:11:27.699Z,1.52
2022-12-05T03:14:00.228Z,1.70
2022-12-05T03:16:41.501Z,1.25
2022-12-05T03:19:29.430Z,1.83
2022-12-05T03:24:25.878Z,1.35
2022-12-05T03:27:13.525Z,1.33
2022-12-05T03:29:51.221Z,1.50
2022-12-05T03:32:29.154Z,1.92
2022-12-05T03:35:25.845Z,1.42
2022-12-05T03:38:04.312Z,1.35
2022-12-05T03:41:02.003Z,1.60
2022-12-05T03:43:55.694Z,1.42
2022-12-05T03:46:37.683Z,1.58
2022-12-05T03:49:21.878Z,1.40
2022-12-05T03:52:11.380Z,1.45
2022-12-05T03:54:42.404Z,1.20
2022-12-05T03:57:14.136Z,1.55
2022-12-05T03:59:55.491Z,1.92
2022-12-05T04:02:27.378Z,1.40
2022-12-05T04:05:07.413Z,1.30
2022-12-05T04:07:36.195Z,1.90
2022-12-05T04:10:06.422Z,1.48
2022-12-05T04:12:34.430Z,1.48
2022-12-05T04:15:06.044Z,1.45
2022-12-05T04:17:59.303Z,1.33
2022-12-05T04:21:00.106Z,1.63
2022-12-05T04:23:28.009Z,1.65
2022-12-05T04:26:07.048Z,1.83
2022-12-05T04:28:39.903Z,1.75
2022-12-05T04:31:07.588Z,2.72
2022-12-05T04:33:34.207Z,2.00
2022-12-05T04:36:37.970Z,1.95
2022-12-05T04:39:31.304Z,2.22
2022-12-05T04:42:05.047Z,2.15
2022-12-05T04:44:37.902Z,2.22
2022-12-05T04:47:06.460Z,1.98
2022-12-05T04:49:33.470Z,2.55
2022-12-05T04:52:05.017Z,2.35
2022-12-05T04:54:45.404Z,2.05
2022-12-05T04:57:19.852Z,2.42
2022-12-05T04:59:46.943Z,2.22
2022-12-05T05:02:17.836Z,1.60
2022-12-05T05:04:51.108Z,2.15
2022-12-05T05:07:18.843Z,2.22
2022-12-05T05:09:45.552Z,1.90
2022-12-05T05:12:18.621Z,2.03
2022-12-05T05:14:45.791Z,2.10
2022-12-05T05:17:12.492Z,1.75
2022-12-05T05:19:39.206Z,2.53
2022-12-05T05:22:05.892Z,2.00
2022-12-05T05:24:32.569Z,1.73
2022-12-05T05:26:59.348Z,1.80
2022-12-05T05:29:26.105Z,1.88
2022-12-05T05:31:52.763Z,2.20
2022-12-05T05:34:19.462Z,2.42
2022-12-05T05:36:46.173Z,2.15
2022-12-05T05:39:15.096Z,2.13
2022-12-05T05:41:42.766Z,3.08
2022-12-05T05:44:09.426Z,3.22
2022-12-05T05:46:36.745Z,2.55
2022-12-05T05:49:04.066Z,5.43
2022-12-05T05:51:30.965Z,2.78
2022-12-05T05:53:58.535Z,7.68
2022-12-05T05:56:25.521Z,5.60
2022-12-05T05:59:02.397Z,3.15
2022-12-05T06:01:30.113Z,4.00
2022-12-05T06:03:57.123Z,5.13
2022-12-05T06:06:24.236Z,2.83
2022-12-05T06:08:50.971Z,5.35
2022-12-05T06:11:26.770Z,3.67
2022-12-05T06:13:55.812Z,4.72
2022-12-05T06:16:22.917Z,2.55
2022-12-05T06:18:52.690Z,3.92
2022-12-05T06:21:19.887Z,3.53
2022-12-05T06:23:46.637Z,3.78
2022-12-05T06:26:16.603Z,3.30
2022-12-05T06:28:44.502Z,3.22
2022-12-05T06:31:16.575Z,3.30
2022-12-05T06:33:44.052Z,5.47
2022-12-05T06:36:13.777Z,3.33
2022-12-05T06:38:42.478Z,3.40
2022-12-05T06:41:12.404Z,5.82
2022-12-05T06:43:39.067Z,4.72
2022-12-05T06:46:07.074Z,3.72
2022-12-05T06:48:33.871Z,4.15
2022-12-05T06:51:00.665Z,6.72
2022-12-05T06:53:27.537Z,4.90
2022-12-05T06:55:59.347Z,5.10
2022-12-05T06:58:26.582Z,6.28
2022-12-05T07:01:11.757Z,3.25
2022-12-05T07:03:38.875Z,3.50
2022-12-05T07:06:06.888Z,6.35
2022-12-05T07:08:34.632Z,3.45
2022-12-05T07:11:01.996Z,2.85
2022-12-05T07:13:28.749Z,3.25
2022-12-05T07:15:55.418Z,3.58
2022-12-05T07:18:22.079Z,3.40
2022-12-05T07:21:12.797Z,3.08
2022-12-05T07:23:41.064Z,3.33
2022-12-05T07:26:09.028Z,3.65
2022-12-05T07:28:36.204Z,3.75
2022-12-05T07:31:05.328Z,3.83
2022-12-05T07:33:32.229Z,2.90
2022-12-05T07:36:02.982Z,4.72
2022-12-05T07:38:29.710Z,3.70
2022-12-05T07:40:56.576Z,3.78
2022-12-05T07:43:23.327Z,3.88
2022-12-05T07:45:50.392Z,3.42
2022-12-05T07:48:18.979Z,3.95
2022-12-05T07:50:46.174Z,4.93
2022-12-05T07:53:12.860Z,4.32
2022-12-05T07:55:39.693Z,5.47
2022-12-05T07:58:06.754Z,5.47
2022-12-05T08:00:33.448Z,5.53
2022-12-05T08:03:02.947Z,3.72
2022-12-05T08:05:29.674Z,4.63
2022-12-05T08:07:56.448Z,3.72
2022-12-05T08:10:23.116Z,5.20
2022-12-05T08:12:49.767Z,3.70
2022-12-05T08:15:16.489Z,7.43
2022-12-05T08:17:43.459Z,6.55
2022-12-05T08:20:10.605Z,5.82
2022-12-05T08:22:37.286Z,5.47
2022-12-05T08:25:04.076Z,6.00
2022-12-05T08:27:30.781Z,12.82
2022-12-05T08:29:57.791Z,6.28
2022-12-05T08:32:24.656Z,4.88
2022-12-05T08:34:51.350Z,4.13
2022-12-05T08:37:17.979Z,2.97
2022-12-05T08:39:44.699Z,2.85
2022-12-05T08:42:11.318Z,3.00
2022-12-05T08:44:37.985Z,2.60
2022-12-05T08:47:04.747Z,6.05
2022-12-05T08:49:31.451Z,3.20
2022-12-05T08:51:58.096Z,3.08
2022-12-05T08:54:24.787Z,8.20
2022-12-05T08:56:52.447Z,9.00
2022-12-05T08:59:19.954Z,3.20
2022-12-05T09:01:46.818Z,3.10
2022-12-05T09:04:13.615Z,2.58
2022-12-05T09:06:41.558Z,2.40
2022-12-05T09:09:11.659Z,3.83
2022-12-05T09:11:46.508Z,4.55
2022-12-05T09:14:13.941Z,5.43
2022-12-05T09:16:40.683Z,5.00
2022-12-05T09:19:16.353Z,3.20
2022-12-05T09:21:43.972Z,6.15
2022-12-05T09:24:12.425Z,14.48
2022-12-05T09:26:40.151Z,7.30
2022-12-05T09:29:09.986Z,4.90
2022-12-05T09:31:43.130Z,4.00
2022-12-05T09:34:10.587Z,3.20
2022-12-05T09:36:37.267Z,3.15
2022-12-05T09:39:06.117Z,3.72
2022-12-05T09:42:07.888Z,5.55
2022-12-05T09:44:45.757Z,5.63
2022-12-05T09:47:28.301Z,5.32
2022-12-05T09:50:14.965Z,5.55
2022-12-05T09:52:45.770Z,5.60
2022-12-05T09:55:18.134Z,4.97
2022-12-05T09:57:51.038Z,4.03
2022-12-05T10:00:18.203Z,4.10
2022-12-05T10:02:54.683Z,4.20
2022-12-05T10:05:43.726Z,3.13
2022-12-05T10:08:21.727Z,4.03
2022-12-05T10:10:54.465Z,3.55
2022-12-05T10:13:27.012Z,3.28
2022-12-05T10:15:57.658Z,3.45
2022-12-05T10:18:38.920Z,3.97
2022-12-05T10:21:08.675Z,4.90
2022-12-05T10:23:59.228Z,6.20
2022-12-05T10:26:34.565Z,7.35
2022-12-05T10:29:22.540Z,3.88
2022-12-05T10:31:49.637Z,4.45
2022-12-05T10:34:27.248Z,4.07
2022-12-05T10:37:01.078Z,5.07
2022-12-05T10:39:27.953Z,3.83
2022-12-05T10:41:55.861Z,3.30
2022-12-05T10:44:22.607Z,4.18
2022-12-05T10:46:49.296Z,2.92
2022-12-05T10:49:16.052Z,2.80
2022-12-05T10:51:42.813Z,5.13
2022-12-05T10:54:20.946Z,3.40
2022-12-05T10:56:49.978Z,3.20
2022-12-05T10:59:21.846Z,3.40
2022-12-05T11:01:53.708Z,4.43
2022-12-05T11:04:28.799Z,2.90
2022-12-05T11:06:59.622Z,3.67
2022-12-05T11:09:32.822Z,2.78
2022-12-05T11:12:26.114Z,2.50
2022-12-05T11:15:01.391Z,3.60
2022-12-05T11:17:35.946Z,2.70
2022-12-05T11:20:22.458Z,3.92
2022-12-05T11:22:51.590Z,3.80
2022-12-05T11:25:28.807Z,3.40
2022-12-05T11:28:00.913Z,2.58
2022-12-05T11:30:29.496Z,3.38
2022-12-05T11:33:12.366Z,3.72
2022-12-05T11:35:39.294Z,4.85
2022-12-05T11:38:06.502Z,3.70
2022-12-05T11:40:48.177Z,3.00
2022-12-05T11:46:03.789Z,3.05
2022-12-05T11:48:42.663Z,3.25
2022-12-05T11:51:30.988Z,3.15
2022-12-05T11:54:56.793Z,2.50
2022-12-05T11:57:33.215Z,3.08
2022-12-05T12:00:05.805Z,3.00
2022-12-05T12:02:41.313Z,3.63
2022-12-05T12:05:18.462Z,4.03
2022-12-05T12:07:54.312Z,9.50
2022-12-05T12:10:49.009Z,4.53
2022-12-05T12:13:21.862Z,7.07
2022-12-05T12:16:23.639Z,4.38
2022-12-05T12:19:02.761Z,3.03
2022-12-05T12:21:39.066Z,3.13
2022-12-05T12:24:16.631Z,2.80
2022-12-05T12:26:58.252Z,3.55
2022-12-05T12:32:30.937Z,3.53
2022-12-05T12:35:18.143Z,3.30
2022-12-05T12:38:22.047Z,3.72
2022-12-05T12:40:51.682Z,4.07
2022-12-05T12:43:55.270Z,2.65
2022-12-05T12:46:37.488Z,3.55
2022-12-05T12:49:19.088Z,3.78
2022-12-05T12:55:13.150Z,5.10
2022-12-05T12:57:52.537Z,3.92
2022-12-05T13:00:42.264Z,5.07
2022-12-05T13:03:21.238Z,5.07
2022-12-05T13:05:50.634Z,5.13
2022-12-05T13:08:38.447Z,26.23
2022-12-05T13:11:08.846Z,6.32
2022-12-05T13:13:49.896Z,8.90
2022-12-05T13:16:25.769Z,15.90
2022-12-05T13:18:54.622Z,7.72
2022-12-05T13:21:21.462Z,7.25
2022-12-05T13:23:50.955Z,5.80
2022-12-05T13:26:18.574Z,5.43
2022-12-05T13:28:52.596Z,7.28
2022-12-05T13:31:20.041Z,5.32
2022-12-05T13:33:50.878Z,9.27
2022-12-05T13:36:42.463Z,6.68
2022-12-05T13:39:33.540Z,6.30
2022-12-05T13:42:15.741Z,5.70
2022-12-05T13:45:05.458Z,10.43
2022-12-05T13:47:53.851Z,3.75
2022-12-05T13:50:30.710Z,10.15
2022-12-05T13:53:01.359Z,3.90
2022-12-05T13:55:35.568Z,2.88
2022-12-05T13:58:22.858Z,3.58
2022-12-05T14:00:53.079Z,3.05
2022-12-05T14:03:35.036Z,3.67
2022-12-05T14:06:01.777Z,11.68
2022-12-05T14:08:31.551Z,4.85
2022-12-05T14:10:58.158Z,11.07
2022-12-05T14:13:25.470Z,5.88
2022-12-05T14:15:54.675Z,5.05
2022-12-05T14:18:44.203Z,7.82
2022-12-05T14:21:29.581Z,8.43
2022-12-05T14:24:22.054Z,7.88
2022-12-05T14:27:16.630Z,6.25
2022-12-05T14:29:55.879Z,6.18
2022-12-05T14:32:29.961Z,5.32
2022-12-05T14:35:32.230Z,5.03
2022-12-05T14:38:04.799Z,4.97
2022-12-05T14:40:35.024Z,5.85
2022-12-05T14:43:20.202Z,5.95
2022-12-05T14:45:52.916Z,4.45
2022-12-05T14:48:47.803Z,3.80
2022-12-05T14:51:33.034Z,4.07
2022-12-05T14:54:12.478Z,3.38
2022-12-05T14:56:44.969Z,4.10
2022-12-05T14:59:28.102Z,3.92
2022-12-05T15:01:57.496Z,6.25
2022-12-05T15:05:06.090Z,5.38
2022-12-05T15:07:36.512Z,6.28
2022-12-05T15:10:05.988Z,7.70
2022-12-05T15:12:41.317Z,10.05
2022-12-05T15:15:13.886Z,5.72
2022-12-05T15:18:05.726Z,7.10
2022-12-05T15:20:44.198Z,8.02
2022-12-05T15:23:48.359Z,17.38
2022-12-05T15:29:27.066Z,4.50
2022-12-05T15:31:56.985Z,3.72
2022-12-05T15:34:50.082Z,6.50
2022-12-05T15:37:48.852Z,6.20
2022-12-05T15:40:22.001Z,6.13
2022-12-05T15:42:50.950Z,4.70
2022-12-05T15:45:23.407Z,9.32
2022-12-05T15:47:51.554Z,6.18
2022-12-05T15:50:21.269Z,9.18
2022-12-05T15:52:53.804Z,5.70
2022-12-05T15:55:27.016Z,8.60
2022-12-05T15:58:12.947Z,4.40
2022-12-05T16:00:42.017Z,4.43
2022-12-05T16:03:12.729Z,3.78
2022-12-05T16:05:46.898Z,4.45
2022-12-05T16:08:13.712Z,6.68
2022-12-05T16:10:40.475Z,8.35
2022-12-05T16:13:12.781Z,6.72
2022-12-05T16:15:46.413Z,13.98
2022-12-05T16:18:27.725Z,11.68
2022-12-05T16:20:54.805Z,8.27
2022-12-05T16:23:32.538Z,9.85
2022-12-05T16:26:19.984Z,5.82
2022-12-05T16:29:00.203Z,5.78
2022-12-05T16:31:27.729Z,10.02
2022-12-05T16:34:02.906Z,10.82
2022-12-05T16:36:29.668Z,8.07
2022-12-05T16:39:05.197Z,14.35
2022-12-05T16:44:09.457Z,6.63
2022-12-05T16:46:43.103Z,7.60
2022-12-05T16:49:20.090Z,6.38
2022-12-05T16:51:55.366Z,8.57
2022-12-05T16:54:22.041Z,8.27
2022-12-05T16:56:48.698Z,14.68
2022-12-05T16:59:23.156Z,11.63
2022-12-05T17:01:49.844Z,8.82
2022-12-05T17:04:16.630Z,9.13
2022-12-05T17:06:43.336Z,8.73
2022-12-05T17:09:09.987Z,8.85
2022-12-05T17:11:37.407Z,7.93
2022-12-05T17:14:04.187Z,13.73
2022-12-05T17:16:31.041Z,20.63
2022-12-05T17:18:57.835Z,8.77
2022-12-05T17:21:26.198Z,5.53
2022-12-05T17:23:53.063Z,8.73
2022-12-05T17:26:21.486Z,7.35
2022-12-05T17:28:48.908Z,4.43
2022-12-05T17:31:20.812Z,8.52
2022-12-05T17:33:48.612Z,7.28
2022-12-05T17:36:15.704Z,6.03
2022-12-05T17:38:43.216Z,5.97
2022-12-05T17:41:21.227Z,5.03
2022-12-05T17:43:47.949Z,5.03
2022-12-05T17:46:22.423Z,4.32
2022-12-05T17:48:50.313Z,5.72
2022-12-05T17:51:17.895Z,5.93
2022-12-05T17:53:44.738Z,5.38
2022-12-05T17:56:12.388Z,6.90
2022-12-05T17:58:39.020Z,4.20
2022-12-05T18:01:06.098Z,8.50
2022-12-05T18:03:33.136Z,6.78
2022-12-05T18:05:59.892Z,7.70
2022-12-05T18:08:26.575Z,2.95
2022-12-05T18:10:53.229Z,3.38
2022-12-05T18:13:19.972Z,4.70
2022-12-05T18:15:48.172Z,5.05
2022-12-05T18:18:16.747Z,5.32
2022-12-05T18:20:43.504Z,5.30
2022-12-05T18:23:10.827Z,3.35
2022-12-05T18:25:37.486Z,6.10
2022-12-05T18:28:04.171Z,5.80
2022-12-05T18:30:30.990Z,5.40
2022-12-05T18:32:57.628Z,4.35
2022-12-05T18:35:40.592Z,6.20
2022-12-05T18:38:10.703Z,5.25
2022-12-05T18:40:37.722Z,3.75
2022-12-05T18:43:04.461Z,4.82
2022-12-05T18:45:31.245Z,3.38
2022-12-05T18:48:09.925Z,5.53
2022-12-05T18:50:44.695Z,5.72
2022-12-05T18:53:11.421Z,3.92
2022-12-05T18:55:58.382Z,5.72
2022-12-05T18:58:24.820Z,4.93
2022-12-05T19:00:51.566Z,4.85
2022-12-05T19:03:18.354Z,2.50
2022-12-05T19:05:45.003Z,3.20
2022-12-05T19:08:11.676Z,5.80
2022-12-05T19:10:38.405Z,5.38
2022-12-05T19:13:05.085Z,3.40
2022-12-05T19:15:31.753Z,3.25
2022-12-05T19:17:58.454Z,3.75
2022-12-05T19:20:25.074Z,3.90
2022-12-05T19:22:53.173Z,4.15
2022-12-05T19:25:23.068Z,5.85
2022-12-05T19:27:49.750Z,3.83
2022-12-05T19:30:16.604Z,4.85
2022-12-05T19:32:43.316Z,10.05
2022-12-05T19:35:10.404Z,5.95
2022-12-05T19:37:37.076Z,5.53
2022-12-05T19:40:04.058Z,6.43
2022-12-05T19:42:31.368Z,4.45
2022-12-05T19:45:00.913Z,5.50
2022-12-05T19:47:30.028Z,3.95
2022-12-05T19:49:57.237Z,4.90
2022-12-05T19:52:24.301Z,4.20
2022-12-05T19:54:50.970Z,3.35
2022-12-05T19:57:18.167Z,3.15
2022-12-05T19:59:44.824Z,3.63
2022-12-05T20:02:11.818Z,7.88
2022-12-05T20:04:38.562Z,8.52
2022-12-05T20:07:05.217Z,3.28
2022-12-05T20:09:31.899Z,4.13
2022-12-05T20:11:58.567Z,4.38
2022-12-05T20:14:25.971Z,4.30
2022-12-05T20:16:53.165Z,4.20
2022-12-05T20:19:19.991Z,9.80
2022-12-05T20:21:46.934Z,3.67
2022-12-05T20:24:13.554Z,3.83
2022-12-05T20:26:42.481Z,3.22
2022-12-05T20:29:10.433Z,3.25
2022-12-05T20:31:41.587Z,2.75
2022-12-05T20:34:11.412Z,3.30
2022-12-05T20:36:38.139Z,2.90
2022-12-05T20:39:11.434Z,2.83
2022-12-05T20:41:38.170Z,3.00
2022-12-05T20:44:07.324Z,4.32
2022-12-05T20:46:35.363Z,2.88
2022-12-05T20:49:02.071Z,2.40
2022-12-05T20:51:30.781Z,2.55
2022-12-05T20:53:58.631Z,2.47
2022-12-05T20:56:28.459Z,4.78
2022-12-05T20:58:56.960Z,3.25
2022-12-05T21:01:25.147Z,3.50
2022-12-05T21:03:52.492Z,3.17
2022-12-05T21:06:27.071Z,3.35
2022-12-05T21:08:54.370Z,3.45
2022-12-05T21:11:22.133Z,3.65
2022-12-05T21:13:48.890Z,4.03
2022-12-05T21:16:18.548Z,3.17
2022-12-05T21:18:45.923Z,4.80
2022-12-05T21:21:18.466Z,3.42
2022-12-05T21:23:46.699Z,3.33
2022-12-05T21:26:15.837Z,4.03
2022-12-05T21:28:43.166Z,3.33
2022-12-05T21:31:15.738Z,3.30
2022-12-05T21:33:43.639Z,3.17
2022-12-05T21:36:10.285Z,3.00
2022-12-05T21:38:36.991Z,3.42
2022-12-05T21:41:04.695Z,3.05
2022-12-05T21:43:31.542Z,3.83
2022-12-05T21:45:58.247Z,2.85
2022-12-05T21:48:25.443Z,2.88
2022-12-05T21:50:52.614Z,2.58
2022-12-05T21:53:20.503Z,2.55
2022-12-05T21:55:47.377Z,3.40
2022-12-05T21:58:14.500Z,3.22
2022-12-05T22:00:41.192Z,2.83
2022-12-05T22:03:08.000Z,4.00
2022-12-05T22:05:34.759Z,3.28
2022-12-05T22:08:06.271Z,3.97
2022-12-05T22:10:36.217Z,4.15
2022-12-05T22:13:03.161Z,3.42
2022-12-05T22:15:29.953Z,3.60
2022-12-05T22:17:56.579Z,7.20
2022-12-05T22:20:23.224Z,6.47
2022-12-05T22:22:49.909Z,5.63
2022-12-05T22:25:16.693Z,4.28
2022-12-05T22:27:43.390Z,3.20
2022-12-05T22:30:10.287Z,2.92
2022-12-05T22:32:37.013Z,2.70
2022-12-05T22:35:04.539Z,2.50
2022-12-05T22:37:31.841Z,2.92
2022-12-05T22:39:59.010Z,3.00
2022-12-05T22:42:26.897Z,2.55
2022-12-05T22:44:53.626Z,2.55
2022-12-05T22:47:20.282Z,2.95
2022-12-05T22:49:46.930Z,3.20
2022-12-05T22:52:13.670Z,3.00
2022-12-05T22:54:40.363Z,3.25
2022-12-05T22:57:06.988Z,3.10
2022-12-05T22:59:33.655Z,2.75
2022-12-05T23:02:01.417Z,2.53
2022-12-05T23:04:28.170Z,3.17
2022-12-05T23:06:54.908Z,3.75
2022-12-05T23:09:21.945Z,3.10
2022-12-05T23:11:51.567Z,2.33
2022-12-05T23:14:18.398Z,3.08
2022-12-05T23:16:45.095Z,3.00
2022-12-05T23:19:11.883Z,3.60
2022-12-05T23:21:39.730Z,2.70
2022-12-05T23:24:08.631Z,3.15
2022-12-05T23:26:41.575Z,2.58
2022-12-05T23:29:08.317Z,2.53
2022-12-05T23:31:35.147Z,2.60
2022-12-05T23:34:03.866Z,2.75
2022-12-05T23:36:32.465Z,3.00
2022-12-05T23:38:59.391Z,2.35
2022-12-05T23:41:26.406Z,2.22
2022-12-05T23:43:53.798Z,3.30
2022-12-05T23:46:22.678Z,3.13
2022-12-05T23:48:49.840Z,3.10
2022-12-05T23:51:21.875Z,2.83
2022-12-05T23:53:53.127Z,3.38
2022-12-05T23:56:22.935Z,2.25
2022-12-05T23:58:49.588Z,3.03
